sensor_id;sensor_type;location;lat;lon;timestamp;temperature;humidity
17659;DHT22;8948;51.534;8.262;2023-08-12T00:01:42;23.20;60.50
17659;DHT22;8948;51.534;8.262;2023-08-12T00:06:43;23.20;63.00
17659;DHT22;8948;51.534;8.262;2023-08-12T00:11:44;23.00;64.80
17659;DHT22;8948;51.534;8.262;2023-08-12T00:16:44;22.90;66.00
17659;DHT22;8948;51.534;8.262;2023-08-12T00:21:45;22.70;67.50
17659;DHT22;8948;51.534;8.262;2023-08-12T00:26:45;22.50;68.50
17659;DHT22;8948;51.534;8.262;2023-08-12T00:31:46;22.50;69.20
17659;DHT22;8948;51.534;8.262;2023-08-12T00:36:47;22.40;69.70
17659;DHT22;8948;51.534;8.262;2023-08-12T00:41:47;22.50;69.10
17659;DHT22;8948;51.534;8.262;2023-08-12T00:46:48;22.50;70.00
17659;DHT22;8948;51.534;8.262;2023-08-12T00:51:50;22.50;70.20
17659;DHT22;8948;51.534;8.262;2023-08-12T00:56:52;22.50;70.40
17659;DHT22;8948;51.534;8.262;2023-08-12T01:01:53;22.60;70.40
17659;DHT22;8948;51.534;8.262;2023-08-12T01:06:54;22.50;70.50
17659;DHT22;8948;51.534;8.262;2023-08-12T01:12:05;22.60;70.40
17659;DHT22;8948;51.534;8.262;2023-08-12T01:17:08;22.60;70.30
17659;DHT22;8948;51.534;8.262;2023-08-12T01:22:12;22.70;69.60
17659;DHT22;8948;51.534;8.262;2023-08-12T01:27:13;22.90;69.30
17659;DHT22;8948;51.534;8.262;2023-08-12T01:37:36;22.80;69.40
17659;DHT22;8948;51.534;8.262;2023-08-12T01:42:39;22.70;70.10
17659;DHT22;8948;51.534;8.262;2023-08-12T01:47:44;22.70;70.50
17659;DHT22;8948;51.534;8.262;2023-08-12T01:52:44;22.70;71.10
17659;DHT22;8948;51.534;8.262;2023-08-12T01:57:45;22.70;70.80
17659;DHT22;8948;51.534;8.262;2023-08-12T02:02:46;22.70;71.00
17659;DHT22;8948;51.534;8.262;2023-08-12T02:07:46;22.80;70.90
17659;DHT22;8948;51.534;8.262;2023-08-12T02:12:47;22.70;71.20
17659;DHT22;8948;51.534;8.262;2023-08-12T02:17:47;22.70;71.40
17659;DHT22;8948;51.534;8.262;2023-08-12T02:22:48;22.70;71.60
17659;DHT22;8948;51.534;8.262;2023-08-12T02:27:49;22.50;71.90
17659;DHT22;8948;51.534;8.262;2023-08-12T02:32:49;22.50;71.90
17659;DHT22;8948;51.534;8.262;2023-08-12T02:37:50;22.60;72.00
17659;DHT22;8948;51.534;8.262;2023-08-12T02:42:50;22.50;72.30
17659;DHT22;8948;51.534;8.262;2023-08-12T02:47:51;22.40;72.50
17659;DHT22;8948;51.534;8.262;2023-08-12T02:52:51;22.30;72.80
17659;DHT22;8948;51.534;8.262;2023-08-12T02:57:52;22.30;73.00
17659;DHT22;8948;51.534;8.262;2023-08-12T03:02:53;22.30;73.50
17659;DHT22;8948;51.534;8.262;2023-08-12T03:07:54;22.30;73.40
17659;DHT22;8948;51.534;8.262;2023-08-12T03:12:55;22.30;73.30
17659;DHT22;8948;51.534;8.262;2023-08-12T03:17:56;22.20;73.60
17659;DHT22;8948;51.534;8.262;2023-08-12T03:22:57;22.30;73.40
17659;DHT22;8948;51.534;8.262;2023-08-12T03:27:57;22.20;73.40
17659;DHT22;8948;51.534;8.262;2023-08-12T03:32:58;22.20;73.50
17659;DHT22;8948;51.534;8.262;2023-08-12T03:37:58;22.20;73.50
17659;DHT22;8948;51.534;8.262;2023-08-12T03:42:59;22.10;73.60
17659;DHT22;8948;51.534;8.262;2023-08-12T03:48:00;22.10;74.20
17659;DHT22;8948;51.534;8.262;2023-08-12T03:53:01;22.00;73.90
17659;DHT22;8948;51.534;8.262;2023-08-12T03:58:01;22.00;73.40
17659;DHT22;8948;51.534;8.262;2023-08-12T04:03:02;22.00;72.50
17659;DHT22;8948;51.534;8.262;2023-08-12T04:08:03;22.00;73.60
17659;DHT22;8948;51.534;8.262;2023-08-12T04:13:04;22.00;73.70
17659;DHT22;8948;51.534;8.262;2023-08-12T04:18:04;22.00;72.50
17659;DHT22;8948;51.534;8.262;2023-08-12T04:23:05;22.00;73.60
17659;DHT22;8948;51.534;8.262;2023-08-12T04:28:06;22.00;74.00
17659;DHT22;8948;51.534;8.262;2023-08-12T04:33:06;21.90;74.40
17659;DHT22;8948;51.534;8.262;2023-08-12T04:38:07;21.90;74.80
17659;DHT22;8948;51.534;8.262;2023-08-12T04:43:08;21.80;75.00
17659;DHT22;8948;51.534;8.262;2023-08-12T04:48:09;21.80;74.90
17659;DHT22;8948;51.534;8.262;2023-08-12T04:53:11;21.80;75.10
17659;DHT22;8948;51.534;8.262;2023-08-12T04:58:11;21.80;74.80
17659;DHT22;8948;51.534;8.262;2023-08-12T05:03:12;21.90;74.50
17659;DHT22;8948;51.534;8.262;2023-08-12T05:08:12;21.80;74.40
17659;DHT22;8948;51.534;8.262;2023-08-12T05:13:13;21.70;75.50
17659;DHT22;8948;51.534;8.262;2023-08-12T05:18:14;21.60;75.50
17659;DHT22;8948;51.534;8.262;2023-08-12T05:23:14;21.50;75.20
17659;DHT22;8948;51.534;8.262;2023-08-12T05:28:15;21.60;75.70
17659;DHT22;8948;51.534;8.262;2023-08-12T05:33:16;21.60;75.20
17659;DHT22;8948;51.534;8.262;2023-08-12T05:38:16;21.60;75.20
17659;DHT22;8948;51.534;8.262;2023-08-12T05:43:17;21.60;75.60
17659;DHT22;8948;51.534;8.262;2023-08-12T05:48:18;21.60;75.50
17659;DHT22;8948;51.534;8.262;2023-08-12T05:53:19;21.70;75.60
17659;DHT22;8948;51.534;8.262;2023-08-12T05:58:19;21.90;75.60
17659;DHT22;8948;51.534;8.262;2023-08-12T06:03:20;22.00;75.30
17659;DHT22;8948;51.534;8.262;2023-08-12T06:08:21;22.20;74.80
17659;DHT22;8948;51.534;8.262;2023-08-12T06:13:21;22.40;75.10
17659;DHT22;8948;51.534;8.262;2023-08-12T06:18:22;22.50;73.60
17659;DHT22;8948;51.534;8.262;2023-08-12T06:23:23;22.50;72.80
17659;DHT22;8948;51.534;8.262;2023-08-12T06:28:23;22.40;73.60
17659;DHT22;8948;51.534;8.262;2023-08-12T06:33:24;22.40;74.60
17659;DHT22;8948;51.534;8.262;2023-08-12T06:38:24;22.40;72.00
17659;DHT22;8948;51.534;8.262;2023-08-12T06:43:25;22.20;73.90
17659;DHT22;8948;51.534;8.262;2023-08-12T06:48:25;22.30;75.40
17659;DHT22;8948;51.534;8.262;2023-08-12T06:53:26;22.60;75.70
17659;DHT22;8948;51.534;8.262;2023-08-12T06:58:27;23.00;73.40
17659;DHT22;8948;51.534;8.262;2023-08-12T07:03:28;23.30;72.00
17659;DHT22;8948;51.534;8.262;2023-08-12T07:08:33;23.70;70.20
17659;DHT22;8948;51.534;8.262;2023-08-12T07:13:35;23.80;71.50
17659;DHT22;8948;51.534;8.262;2023-08-12T07:18:35;23.50;72.00
17659;DHT22;8948;51.534;8.262;2023-08-12T07:23:36;23.40;73.20
17659;DHT22;8948;51.534;8.262;2023-08-12T07:28:36;23.30;72.10
17659;DHT22;8948;51.534;8.262;2023-08-12T07:33:37;23.00;71.60
17659;DHT22;8948;51.534;8.262;2023-08-12T07:38:37;22.90;73.20
17659;DHT22;8948;51.534;8.262;2023-08-12T07:43:38;22.90;74.00
17659;DHT22;8948;51.534;8.262;2023-08-12T07:48:39;22.70;73.80
17659;DHT22;8948;51.534;8.262;2023-08-12T07:53:39;22.50;74.70
17659;DHT22;8948;51.534;8.262;2023-08-12T07:58:40;22.40;74.40
17659;DHT22;8948;51.534;8.262;2023-08-12T08:03:40;22.30;75.30
17659;DHT22;8948;51.534;8.262;2023-08-12T08:08:41;22.20;73.80
17659;DHT22;8948;51.534;8.262;2023-08-12T08:13:42;22.20;75.50
17659;DHT22;8948;51.534;8.262;2023-08-12T08:18:42;22.10;75.50
17659;DHT22;8948;51.534;8.262;2023-08-12T08:23:43;22.10;75.90
17659;DHT22;8948;51.534;8.262;2023-08-12T08:28:44;22.20;75.50
17659;DHT22;8948;51.534;8.262;2023-08-12T08:33:44;22.40;74.80
17659;DHT22;8948;51.534;8.262;2023-08-12T08:38:45;22.50;75.30
17659;DHT22;8948;51.534;8.262;2023-08-12T08:43:47;22.70;74.60
17659;DHT22;8948;51.534;8.262;2023-08-12T08:48:48;23.10;73.50
17659;DHT22;8948;51.534;8.262;2023-08-12T08:53:50;23.40;73.80
17659;DHT22;8948;51.534;8.262;2023-08-12T08:58:54;23.80;73.30
17659;DHT22;8948;51.534;8.262;2023-08-12T09:03:55;24.10;71.60
17659;DHT22;8948;51.534;8.262;2023-08-12T09:08:57;24.30;71.50
17659;DHT22;8948;51.534;8.262;2023-08-12T09:13:58;24.80;70.00
17659;DHT22;8948;51.534;8.262;2023-08-12T09:18:59;24.70;69.70
17659;DHT22;8948;51.534;8.262;2023-08-12T09:24:03;24.70;70.30
17659;DHT22;8948;51.534;8.262;2023-08-12T09:29:04;24.80;68.60
17659;DHT22;8948;51.534;8.262;2023-08-12T09:34:06;25.00;71.70
17659;DHT22;8948;51.534;8.262;2023-08-12T09:39:07;25.60;69.70
17659;DHT22;8948;51.534;8.262;2023-08-12T09:44:10;26.00;66.70
17659;DHT22;8948;51.534;8.262;2023-08-12T09:49:11;25.80;67.30
17659;DHT22;8948;51.534;8.262;2023-08-12T09:54:12;26.30;68.40
17659;DHT22;8948;51.534;8.262;2023-08-12T09:59:13;26.20;65.70
17659;DHT22;8948;51.534;8.262;2023-08-12T10:04:18;26.30;66.50
17659;DHT22;8948;51.534;8.262;2023-08-12T10:09:21;26.10;67.50
17659;DHT22;8948;51.534;8.262;2023-08-12T10:14:23;26.20;67.70
17659;DHT22;8948;51.534;8.262;2023-08-12T10:19:24;26.90;64.70
17659;DHT22;8948;51.534;8.262;2023-08-12T10:24:29;27.00;65.10
17659;DHT22;8948;51.534;8.262;2023-08-12T10:29:30;26.30;64.80
17659;DHT22;8948;51.534;8.262;2023-08-12T10:34:30;26.20;66.40
17659;DHT22;8948;51.534;8.262;2023-08-12T10:39:33;26.00;66.00
17659;DHT22;8948;51.534;8.262;2023-08-12T10:44:50;25.80;65.40
17659;DHT22;8948;51.534;8.262;2023-08-12T10:49:53;25.80;67.40
17659;DHT22;8948;51.534;8.262;2023-08-12T10:54:53;26.10;65.70
17659;DHT22;8948;51.534;8.262;2023-08-12T10:59:54;26.50;65.20
17659;DHT22;8948;51.534;8.262;2023-08-12T11:05:06;26.70;62.60
17659;DHT22;8948;51.534;8.262;2023-08-12T11:15:08;26.40;62.60
17659;DHT22;8948;51.534;8.262;2023-08-12T11:20:11;26.60;61.60
17659;DHT22;8948;51.534;8.262;2023-08-12T11:25:13;26.80;61.80
17659;DHT22;8948;51.534;8.262;2023-08-12T11:30:18;26.60;61.70
17659;DHT22;8948;51.534;8.262;2023-08-12T11:35:21;26.50;61.60
17659;DHT22;8948;51.534;8.262;2023-08-12T11:40:31;26.30;60.60
17659;DHT22;8948;51.534;8.262;2023-08-12T11:45:31;26.00;61.30
17659;DHT22;8948;51.534;8.262;2023-08-12T11:50:32;25.90;62.60
17659;DHT22;8948;51.534;8.262;2023-08-12T11:55:33;25.80;62.00
17659;DHT22;8948;51.534;8.262;2023-08-12T12:00:34;26.00;61.90
17659;DHT22;8948;51.534;8.262;2023-08-12T12:05:34;25.90;62.70
17659;DHT22;8948;51.534;8.262;2023-08-12T12:10:35;26.20;62.70
17659;DHT22;8948;51.534;8.262;2023-08-12T12:15:41;26.50;60.30
17659;DHT22;8948;51.534;8.262;2023-08-12T12:20:56;26.40;61.50
17659;DHT22;8948;51.534;8.262;2023-08-12T12:26:02;26.80;61.20
17659;DHT22;8948;51.534;8.262;2023-08-12T12:31:03;27.00;60.70
17659;DHT22;8948;51.534;8.262;2023-08-12T12:36:03;26.80;60.70
17659;DHT22;8948;51.534;8.262;2023-08-12T12:41:04;26.70;62.20
17659;DHT22;8948;51.534;8.262;2023-08-12T12:46:05;26.40;60.80
17659;DHT22;8948;51.534;8.262;2023-08-12T12:51:05;26.20;61.30
17659;DHT22;8948;51.534;8.262;2023-08-12T12:56:06;26.30;62.30
17659;DHT22;8948;51.534;8.262;2023-08-12T13:01:06;26.30;63.10
17659;DHT22;8948;51.534;8.262;2023-08-12T13:06:07;26.20;63.20
17659;DHT22;8948;51.534;8.262;2023-08-12T13:11:07;26.00;61.00
17659;DHT22;8948;51.534;8.262;2023-08-12T13:16:08;25.90;62.50
17659;DHT22;8948;51.534;8.262;2023-08-12T13:21:08;26.10;63.90
17659;DHT22;8948;51.534;8.262;2023-08-12T13:26:09;26.00;61.80
17659;DHT22;8948;51.534;8.262;2023-08-12T13:31:10;25.90;62.70
17659;DHT22;8948;51.534;8.262;2023-08-12T13:36:11;25.80;62.50
17659;DHT22;8948;51.534;8.262;2023-08-12T13:41:12;25.60;62.30
17659;DHT22;8948;51.534;8.262;2023-08-12T13:46:13;25.30;65.40
17659;DHT22;8948;51.534;8.262;2023-08-12T13:51:13;25.10;66.10
17659;DHT22;8948;51.534;8.262;2023-08-12T13:56:14;24.90;66.60
17659;DHT22;8948;51.534;8.262;2023-08-12T14:01:15;24.80;68.30
17659;DHT22;8948;51.534;8.262;2023-08-12T14:06:15;24.60;68.50
17659;DHT22;8948;51.534;8.262;2023-08-12T14:11:16;24.00;72.10
17659;DHT22;8948;51.534;8.262;2023-08-12T14:16:17;23.50;73.60
17659;DHT22;8948;51.534;8.262;2023-08-12T14:21:17;23.40;73.70
17659;DHT22;8948;51.534;8.262;2023-08-12T14:26:32;23.40;73.50
17659;DHT22;8948;51.534;8.262;2023-08-12T14:31:33;23.60;73.50
17659;DHT22;8948;51.534;8.262;2023-08-12T14:36:34;24.10;74.10
17659;DHT22;8948;51.534;8.262;2023-08-12T14:41:36;24.40;72.40
17659;DHT22;8948;51.534;8.262;2023-08-12T14:46:37;24.30;72.40
17659;DHT22;8948;51.534;8.262;2023-08-12T14:51:37;24.10;72.70
17659;DHT22;8948;51.534;8.262;2023-08-12T14:56:38;23.80;72.80
17659;DHT22;8948;51.534;8.262;2023-08-12T15:01:38;23.40;71.90
17659;DHT22;8948;51.534;8.262;2023-08-12T15:06:39;23.00;73.00
17659;DHT22;8948;51.534;8.262;2023-08-12T15:11:39;23.10;74.30
17659;DHT22;8948;51.534;8.262;2023-08-12T15:16:40;23.50;73.40
17659;DHT22;8948;51.534;8.262;2023-08-12T15:21:40;24.00;70.90
17659;DHT22;8948;51.534;8.262;2023-08-12T15:26:41;24.10;70.00
17659;DHT22;8948;51.534;8.262;2023-08-12T15:31:42;24.10;71.70
17659;DHT22;8948;51.534;8.262;2023-08-12T15:36:44;24.20;69.70
17659;DHT22;8948;51.534;8.262;2023-08-12T15:41:44;24.70;70.20
17659;DHT22;8948;51.534;8.262;2023-08-12T15:46:45;25.00;69.60
17659;DHT22;8948;51.534;8.262;2023-08-12T15:51:46;25.30;68.30
17659;DHT22;8948;51.534;8.262;2023-08-12T15:56:46;25.20;69.10
17659;DHT22;8948;51.534;8.262;2023-08-12T16:01:47;24.90;68.70
17659;DHT22;8948;51.534;8.262;2023-08-12T16:06:47;25.00;69.60
17659;DHT22;8948;51.534;8.262;2023-08-12T16:11:48;25.00;69.20
17659;DHT22;8948;51.534;8.262;2023-08-12T16:16:49;25.20;68.60
17659;DHT22;8948;51.534;8.262;2023-08-12T16:21:49;25.30;68.40
17659;DHT22;8948;51.534;8.262;2023-08-12T16:26:50;25.40;67.70
17659;DHT22;8948;51.534;8.262;2023-08-12T16:31:50;25.30;68.30
17659;DHT22;8948;51.534;8.262;2023-08-12T16:36:51;25.20;67.70
17659;DHT22;8948;51.534;8.262;2023-08-12T16:41:52;24.90;67.40
17659;DHT22;8948;51.534;8.262;2023-08-12T16:46:52;24.90;67.60
17659;DHT22;8948;51.534;8.262;2023-08-12T16:51:53;24.60;66.70
17659;DHT22;8948;51.534;8.262;2023-08-12T16:56:53;24.40;68.20
17659;DHT22;8948;51.534;8.262;2023-08-12T17:01:54;24.50;68.40
17659;DHT22;8948;51.534;8.262;2023-08-12T17:06:54;24.60;67.30
17659;DHT22;8948;51.534;8.262;2023-08-12T17:11:55;24.40;67.60
17659;DHT22;8948;51.534;8.262;2023-08-12T17:16:56;24.40;68.10
17659;DHT22;8948;51.534;8.262;2023-08-12T17:21:57;24.40;67.30
17659;DHT22;8948;51.534;8.262;2023-08-12T17:26:57;24.40;67.80
17659;DHT22;8948;51.534;8.262;2023-08-12T17:31:58;24.40;67.30
17659;DHT22;8948;51.534;8.262;2023-08-12T17:36:58;24.10;67.80
17659;DHT22;8948;51.534;8.262;2023-08-12T17:41:59;24.10;67.10
17659;DHT22;8948;51.534;8.262;2023-08-12T17:47:00;24.10;66.50
17659;DHT22;8948;51.534;8.262;2023-08-12T17:52:00;24.00;67.00
17659;DHT22;8948;51.534;8.262;2023-08-12T17:57:01;23.80;67.90
17659;DHT22;8948;51.534;8.262;2023-08-12T18:02:02;23.70;68.00
17659;DHT22;8948;51.534;8.262;2023-08-12T18:07:03;23.50;68.00
17659;DHT22;8948;51.534;8.262;2023-08-12T18:12:04;23.40;68.10
17659;DHT22;8948;51.534;8.262;2023-08-12T18:17:04;23.20;68.60
17659;DHT22;8948;51.534;8.262;2023-08-12T18:22:05;23.20;68.70
17659;DHT22;8948;51.534;8.262;2023-08-12T18:27:06;23.20;68.50
17659;DHT22;8948;51.534;8.262;2023-08-12T18:32:06;23.20;69.00
17659;DHT22;8948;51.534;8.262;2023-08-12T18:37:07;23.10;68.70
17659;DHT22;8948;51.534;8.262;2023-08-12T18:42:07;23.10;68.90
17659;DHT22;8948;51.534;8.262;2023-08-12T18:47:08;23.10;68.80
17659;DHT22;8948;51.534;8.262;2023-08-12T18:52:09;23.20;69.10
17659;DHT22;8948;51.534;8.262;2023-08-12T18:57:09;23.20;68.30
17659;DHT22;8948;51.534;8.262;2023-08-12T19:02:10;23.20;68.70
17659;DHT22;8948;51.534;8.262;2023-08-12T19:07:11;23.20;68.30
17659;DHT22;8948;51.534;8.262;2023-08-12T19:12:11;23.20;68.60
17659;DHT22;8948;51.534;8.262;2023-08-12T19:17:12;23.10;68.70
17659;DHT22;8948;51.534;8.262;2023-08-12T19:22:13;22.90;69.60
17659;DHT22;8948;51.534;8.262;2023-08-12T19:27:13;22.90;68.50
17659;DHT22;8948;51.534;8.262;2023-08-12T19:32:14;22.90;68.60
17659;DHT22;8948;51.534;8.262;2023-08-12T19:37:14;22.80;68.80
17659;DHT22;8948;51.534;8.262;2023-08-12T19:42:15;22.90;68.80
17659;DHT22;8948;51.534;8.262;2023-08-12T19:47:15;22.70;69.40
17659;DHT22;8948;51.534;8.262;2023-08-12T19:52:16;22.60;69.50
17659;DHT22;8948;51.534;8.262;2023-08-12T19:57:16;22.40;69.80
17659;DHT22;8948;51.534;8.262;2023-08-12T20:02:17;22.20;69.50
17659;DHT22;8948;51.534;8.262;2023-08-12T20:07:18;22.00;69.40
17659;DHT22;8948;51.534;8.262;2023-08-12T20:12:18;21.70;68.70
17659;DHT22;8948;51.534;8.262;2023-08-12T20:17:19;21.50;68.60
17659;DHT22;8948;51.534;8.262;2023-08-12T20:22:22;21.40;68.80
17659;DHT22;8948;51.534;8.262;2023-08-12T20:27:23;21.30;68.90
17659;DHT22;8948;51.534;8.262;2023-08-12T20:32:23;21.30;68.90
17659;DHT22;8948;51.534;8.262;2023-08-12T20:37:30;21.40;68.50
17659;DHT22;8948;51.534;8.262;2023-08-12T20:42:30;21.40;68.70
17659;DHT22;8948;51.534;8.262;2023-08-12T20:47:31;21.30;68.70
17659;DHT22;8948;51.534;8.262;2023-08-12T20:52:32;21.20;68.70
17659;DHT22;8948;51.534;8.262;2023-08-12T20:57:32;21.20;68.60
17659;DHT22;8948;51.534;8.262;2023-08-12T21:02:33;21.10;68.50
17659;DHT22;8948;51.534;8.262;2023-08-12T21:07:33;21.10;68.40
17659;DHT22;8948;51.534;8.262;2023-08-12T21:12:34;21.00;68.30
17659;DHT22;8948;51.534;8.262;2023-08-12T21:17:34;21.00;68.50
17659;DHT22;8948;51.534;8.262;2023-08-12T21:22:35;21.00;68.50
17659;DHT22;8948;51.534;8.262;2023-08-12T21:27:35;21.00;68.00
17659;DHT22;8948;51.534;8.262;2023-08-12T21:32:36;20.90;68.10
17659;DHT22;8948;51.534;8.262;2023-08-12T21:37:37;20.90;68.10
17659;DHT22;8948;51.534;8.262;2023-08-12T21:42:37;20.80;68.20
17659;DHT22;8948;51.534;8.262;2023-08-12T21:47:38;20.70;68.10
17659;DHT22;8948;51.534;8.262;2023-08-12T21:52:38;20.70;67.90
17659;DHT22;8948;51.534;8.262;2023-08-12T21:57:39;20.60;67.90
17659;DHT22;8948;51.534;8.262;2023-08-12T22:02:40;20.60;68.00
17659;DHT22;8948;51.534;8.262;2023-08-12T22:07:40;20.50;68.00
17659;DHT22;8948;51.534;8.262;2023-08-12T22:12:41;20.50;68.30
17659;DHT22;8948;51.534;8.262;2023-08-12T22:17:41;20.50;68.40
17659;DHT22;8948;51.534;8.262;2023-08-12T22:22:44;20.30;68.60
17659;DHT22;8948;51.534;8.262;2023-08-12T22:27:45;20.20;68.50
17659;DHT22;8948;51.534;8.262;2023-08-12T22:32:45;20.10;68.80
17659;DHT22;8948;51.534;8.262;2023-08-12T22:37:46;20.00;69.40
17659;DHT22;8948;51.534;8.262;2023-08-12T22:42:46;19.90;69.70
17659;DHT22;8948;51.534;8.262;2023-08-12T22:47:47;19.80;69.80
17659;DHT22;8948;51.534;8.262;2023-08-12T22:52:48;19.80;69.80
17659;DHT22;8948;51.534;8.262;2023-08-12T22:57:48;19.80;69.70
17659;DHT22;8948;51.534;8.262;2023-08-12T23:02:49;19.80;69.30
17659;DHT22;8948;51.534;8.262;2023-08-12T23:07:49;19.80;69.30
17659;DHT22;8948;51.534;8.262;2023-08-12T23:12:50;19.70;69.10
17659;DHT22;8948;51.534;8.262;2023-08-12T23:17:50;19.50;69.60
17659;DHT22;8948;51.534;8.262;2023-08-12T23:22:51;19.40;70.10
17659;DHT22;8948;51.534;8.262;2023-08-12T23:27:52;19.40;70.30
17659;DHT22;8948;51.534;8.262;2023-08-12T23:32:52;19.50;69.90
17659;DHT22;8948;51.534;8.262;2023-08-12T23:37:53;19.50;69.70
17659;DHT22;8948;51.534;8.262;2023-08-12T23:42:53;19.30;70.00
17659;DHT22;8948;51.534;8.262;2023-08-12T23:47:54;19.30;70.30
17659;DHT22;8948;51.534;8.262;2023-08-12T23:52:54;19.20;70.30
17659;DHT22;8948;51.534;8.262;2023-08-12T23:57:55;19.30;70.10
